Time;durP1;ratioP1;P1;durP2;ratioP2;P2;SDS_P1;SDS_P2;PMS_P1;PMS_P2;Temp;Humidity;BMP_temperature;BMP_pressure;BME280_temperature;BME280_humidity;BME280_pressure;Samples;Min_cycle;Max_cycle;Signal;HPM_P1;HPM_P2
2022/01/26 00:06:44;;;;;;;12.52;7.22;;;;;;;-5.46;76.26;99341.03;5060662;28;20025;-54
2022/01/26 00:09:12;;;;;;;17.08;8.95;;;;;;;-5.74;76.09;99257.66;5043876;28;20040;-54
2022/01/26 00:11:38;;;;;;;13.48;8.13;;;;;;;-5.35;76.08;99328.81;5059597;28;20139;-54
2022/01/26 00:14:10;;;;;;;12.20;7.53;;;;;;;-5.35;75.06;99332.19;5058951;28;20056;-54
2022/01/26 00:19:04;;;;;;;15.02;8.65;;;;;;;-5.32;75.30;99354.16;5058896;28;20329;-55
2022/01/26 00:21:34;;;;;;;17.23;8.23;;;;;;;-5.28;74.80;99335.81;5058699;28;20029;-55
2022/01/26 00:24:11;;;;;;;13.93;8.45;;;;;;;-5.25;76.19;99315.72;5058680;28;20037;-54
2022/01/26 00:29:22;;;;;;;13.20;8.25;;;;;;;-5.11;75.30;99318.75;5056343;28;20029;-55
2022/01/26 00:40:24;;;;;;;14.52;8.23;;;;;;;-5.18;76.63;99325.22;5049351;28;20066;-55
2022/01/26 00:42:53;;;;;;;14.20;9.15;;;;;;;-5.18;76.03;99315.13;5053229;28;20041;-55
2022/01/26 00:45:23;;;;;;;13.90;8.43;;;;;;;-5.10;75.23;99326.38;5047190;28;20059;-55
2022/01/26 00:47:49;;;;;;;15.93;8.20;;;;;;;-5.10;75.61;99326.38;5055763;28;20254;-55
2022/01/26 00:50:15;;;;;;;14.23;8.63;;;;;;;-5.10;75.05;99316.28;5043866;28;20063;-55
2022/01/26 00:52:45;;;;;;;13.98;8.52;;;;;;;-5.09;74.87;99338.19;5043563;28;20021;-55
2022/01/26 00:55:15;;;;;;;12.43;8.00;;;;;;;-5.07;74.27;99356.75;5043065;28;20083;-54
2022/01/26 00:57:42;;;;;;;15.13;8.07;;;;;;;-5.05;75.73;99332.41;5043579;28;20389;-54
2022/01/26 01:00:11;;;;;;;14.00;8.05;;;;;;;-5.05;73.70;99329.06;5058059;28;20438;-55
2022/01/26 01:02:37;;;;;;;14.73;8.98;;;;;;;-5.10;75.12;99328.91;5045829;28;20207;-55
2022/01/26 01:05:12;;;;;;;13.93;8.35;;;;;;;-5.10;75.49;99331.41;5043687;28;20032;-55
2022/01/26 01:07:39;;;;;;;13.52;8.15;;;;;;;-5.05;73.95;99324.84;5044134;28;20037;-55
2022/01/26 01:10:06;;;;;;;12.90;7.97;;;;;;;-5.17;74.08;99323.56;5043814;28;20091;-55
2022/01/26 01:12:37;;;;;;;13.55;8.02;;;;;;;-5.10;75.80;99321.31;5043848;28;20029;-55
2022/01/26 01:15:03;;;;;;;14.48;8.35;;;;;;;-5.01;75.65;99324.97;5047023;28;20035;-55
2022/01/26 01:17:36;;;;;;;14.68;8.15;;;;;;;-4.98;75.75;99332.66;5055782;28;20028;-55
2022/01/26 01:23:08;;;;;;;13.75;8.07;;;;;;;-4.97;75.47;99324.25;5051364;28;20100;-54
2022/01/26 01:30:53;;;;;;;14.10;8.23;;;;;;;-4.94;75.58;99316.81;5058610;28;20033;-55
2022/01/26 01:33:22;;;;;;;13.70;7.78;;;;;;;-5.04;74.28;99321.53;5040103;28;20028;-56
2022/01/26 01:35:48;;;;;;;13.85;7.75;;;;;;;-4.99;75.24;99324.19;5060066;28;20033;-55
2022/01/26 01:38:17;;;;;;;13.98;8.50;;;;;;;-5.04;75.15;99321.53;5043716;28;20104;-54
2022/01/26 01:40:46;;;;;;;13.77;8.57;;;;;;;-5.39;74.82;99257.19;5043647;28;20029;-54
2022/01/26 01:43:13;;;;;;;14.10;8.27;;;;;;;-5.13;73.93;99313.66;5056208;28;20041;-55
2022/01/26 01:45:46;;;;;;;13.10;8.07;;;;;;;-5.49;74.88;99261.03;5046466;28;20049;-55
2022/01/26 01:48:17;;;;;;;13.65;8.10;;;;;;;-5.08;75.03;99312.13;5053135;28;20136;-55
2022/01/26 01:50:43;;;;;;;15.35;8.90;;;;;;;-5.15;74.75;99304.28;5053425;28;20092;-55
2022/01/26 01:53:10;;;;;;;14.55;8.98;;;;;;;-5.07;74.46;99318.91;5048881;28;20168;-55
2022/01/26 01:55:39;;;;;;;16.88;8.48;;;;;;;-5.15;74.62;99321.97;5046899;28;20242;-54
2022/01/26 01:58:05;;;;;;;14.05;8.68;;;;;;;-5.24;74.62;99309.88;5057311;28;20252;-54
2022/01/26 02:00:30;;;;;;;16.55;8.80;;;;;;;-5.35;74.26;99328.81;5057686;28;20025;-54
2022/01/26 02:02:57;;;;;;;12.07;7.82;;;;;;;-5.26;74.20;99319.03;5041256;28;20226;-54
2022/01/26 02:05:23;;;;;;;14.48;8.98;;;;;;;-5.23;74.72;99314.97;5059898;28;20035;-55
2022/01/26 02:07:49;;;;;;;15.68;8.55;;;;;;;-5.30;74.69;99322.25;5058621;28;20037;-55
2022/01/26 02:10:14;;;;;;;14.88;8.07;;;;;;;-5.16;75.43;99326.13;5057111;28;20272;-54
2022/01/26 02:12:45;;;;;;;12.77;7.43;;;;;;;-5.18;74.52;99317.66;5045266;28;20033;-55
2022/01/26 02:15:18;;;;;;;15.70;8.65;;;;;;;-5.09;76.62;99322.16;5052386;28;20340;-56
2022/01/26 02:55:45;;;;;;;17.05;10.65;;;;;;;-4.92;75.43;99330.34;5044016;28;20036;-56
2022/01/26 03:01:43;;;;;;;19.52;11.15;;;;;;;-4.90;73.52;99337.16;5041855;28;20032;-57
2022/01/26 03:06:34;;;;;;;25.25;12.23;;;;;;;-4.85;73.62;99332.25;5055130;28;20259;-57
2022/01/26 03:09:06;;;;;;;21.80;11.73;;;;;;;-4.90;73.21;99333.78;5052415;28;20059;-56
2022/01/26 03:11:35;;;;;;;20.80;11.85;;;;;;;-4.89;74.18;99326.25;5045899;28;20029;-56
2022/01/26 03:14:51;;;;;;;21.40;11.02;;;;;;;-4.83;73.06;99322.22;5050656;28;20029;-57
2022/01/26 03:16:53;;;;;;;17.80;11.32;;;;;;;-4.72;74.41;99338.59;5049214;28;20037;-56
2022/01/26 03:30:18;;;;;;;19.65;11.00;;;;;;;-4.71;75.78;99342.84;5056132;28;20029;-56
2022/01/26 03:35:42;;;;;;;21.73;11.80;;;;;;;-4.75;75.44;99336.81;5036533;28;20033;-57
2022/01/26 03:38:17;;;;;;;25.17;12.75;;;;;;;-4.76;75.46;99341.81;5056567;28;20071;-56
2022/01/26 03:40:43;;;;;;;25.73;12.98;;;;;;;-4.79;75.34;99337.50;5045280;28;20021;-56
2022/01/26 03:43:09;;;;;;;28.60;13.32;;;;;;;-4.73;74.91;99337.75;5045260;28;20068;-56
2022/01/26 03:45:34;;;;;;;29.05;13.15;;;;;;;-4.73;76.37;99345.31;5043888;28;20029;-56
2022/01/26 03:48:00;;;;;;;27.40;13.77;;;;;;;-4.81;75.90;99339.13;5061720;28;20372;-56
2022/01/26 03:50:26;;;;;;;25.63;13.63;;;;;;;-4.71;77.54;99332.75;5045378;28;20026;-56
2022/01/26 03:52:52;;;;;;;26.23;13.85;;;;;;;-4.71;76.25;99343.69;5045243;28;20429;-57
2022/01/26 03:55:18;;;;;;;27.33;14.88;;;;;;;-4.68;77.00;99340.41;5056227;28;20032;-56
2022/01/26 03:57:43;;;;;;;23.80;13.30;;;;;;;-4.61;76.66;99336.44;5059236;28;20021;-57
2022/01/26 04:00:10;;;;;;;28.88;14.43;;;;;;;-4.63;76.72;99345.63;5051445;28;20332;-57
2022/01/26 04:02:35;;;;;;;23.38;13.48;;;;;;;-4.72;76.25;99338.59;5059275;28;20032;-56
2022/01/26 04:05:05;;;;;;;28.58;13.50;;;;;;;-4.64;75.75;99344.78;5055633;28;20022;-55
2022/01/26 04:07:31;;;;;;;23.73;13.13;;;;;;;-4.61;75.73;99336.44;5044192;28;20048;-56
2022/01/26 04:10:04;;;;;;;24.05;13.45;;;;;;;-4.62;77.18;99344.81;5059388;28;20041;-56
2022/01/26 04:12:32;;;;;;;23.77;12.85;;;;;;;-4.60;77.04;99341.53;5042590;28;20025;-58
2022/01/26 04:15:05;;;;;;;23.23;13.50;;;;;;;-4.59;76.01;99349.97;5043624;28;20096;-57
2022/01/26 04:17:30;;;;;;;26.85;14.27;;;;;;;-4.65;75.58;99347.25;5044783;28;20157;-56
2022/01/26 04:19:58;;;;;;;22.65;13.07;;;;;;;-4.57;76.10;99349.22;5058721;28;20330;-56
2022/01/26 04:22:32;;;;;;;27.05;13.52;;;;;;;-4.64;76.09;99334.66;5046822;28;20034;-56
2022/01/26 04:24:58;;;;;;;30.10;14.50;;;;;;;-4.68;75.08;99338.75;5044009;28;20049;-56
2022/01/26 04:27:46;;;;;;;25.98;13.80;;;;;;;-4.64;76.38;99342.25;5053384;28;20099;-56
2022/01/26 04:30:12;;;;;;;26.85;13.85;;;;;;;-4.61;76.94;99341.50;5058588;28;20059;-56
2022/01/26 04:32:37;;;;;;;24.52;13.93;;;;;;;-4.58;76.15;99346.66;5051362;28;20029;-56
2022/01/26 04:35:03;;;;;;;27.55;14.48;;;;;;;-4.60;75.92;99344.06;5044142;28;20060;-55
2022/01/26 04:40:11;;;;;;;24.83;14.15;;;;;;;-4.59;76.35;99345.78;5058747;28;20037;-55
2022/01/26 04:42:53;;;;;;;26.92;14.02;;;;;;;-4.66;77.61;99345.53;5057818;28;20053;-54
2022/01/26 04:45:19;;;;;;;30.17;14.85;;;;;;;-4.55;77.67;99350.13;5044122;28;20057;-54
2022/01/26 04:47:44;;;;;;;27.13;14.73;;;;;;;-4.51;76.47;99351.09;5042922;28;20033;-55
2022/01/26 04:50:12;;;;;;;25.13;14.10;;;;;;;-4.59;77.53;99335.69;5045156;28;20028;-55
2022/01/26 04:52:38;;;;;;;25.55;14.40;;;;;;;-4.51;77.82;99357.00;5043058;28;20311;-56
2022/01/26 04:55:04;;;;;;;28.23;15.18;;;;;;;-4.56;77.66;99350.94;5044486;28;20052;-54
2022/01/26 04:57:30;;;;;;;24.98;14.13;;;;;;;-4.70;77.43;99350.47;5055592;28;20096;-55
2022/01/26 04:59:55;;;;;;;26.33;14.32;;;;;;;-4.66;77.45;99353.09;5057681;28;20056;-57
2022/01/26 05:02:21;;;;;;;27.27;14.68;;;;;;;-4.54;77.52;99349.31;5057787;28;20033;-56
2022/01/26 05:04:47;;;;;;;28.63;14.00;;;;;;;-4.50;78.81;99352.81;5054058;28;20037;-56
2022/01/26 05:07:12;;;;;;;26.15;14.43;;;;;;;-4.46;78.61;99352.13;5049468;28;20261;-57
2022/01/26 05:09:39;;;;;;;26.45;14.77;;;;;;;-4.55;76.80;99347.59;5042916;28;20029;-56
2022/01/26 05:12:05;;;;;;;25.75;14.07;;;;;;;-4.60;77.76;99346.59;5056582;28;20345;-57
2022/01/26 05:14:30;;;;;;;25.05;14.88;;;;;;;-4.61;78.09;99344.03;5041613;28;20029;-56
2022/01/26 05:16:56;;;;;;;24.88;14.80;;;;;;;-4.59;78.44;99339.88;5043396;28;20037;-57
2022/01/26 05:19:22;;;;;;;23.35;13.90;;;;;;;-4.59;77.09;99335.69;5056563;28;20025;-57
2022/01/26 05:21:47;;;;;;;26.05;13.98;;;;;;;-4.53;76.70;99340.09;5056626;28;20265;-57
2022/01/26 05:24:13;;;;;;;27.42;15.90;;;;;;;-4.51;78.06;99334.25;5057092;28;20025;-56
2022/01/26 05:26:39;;;;;;;26.75;14.48;;;;;;;-4.54;78.01;99334.16;5056835;28;20044;-56
2022/01/26 05:29:05;;;;;;;26.95;14.95;;;;;;;-4.56;78.57;99318.09;5051987;28;20033;-56
2022/01/26 05:31:30;;;;;;;29.50;15.88;;;;;;;-4.53;77.72;99335.88;5046022;28;20032;-56
2022/01/26 05:33:56;;;;;;;26.08;13.13;;;;;;;-4.42;78.97;99337.91;5052250;28;20033;-57
2022/01/26 05:36:22;;;;;;;26.23;14.90;;;;;;;-4.38;77.85;99340.56;5058522;28;20038;-57
2022/01/26 05:38:47;;;;;;;28.98;15.32;;;;;;;-4.58;78.66;99346.66;5041272;28;20025;-58
2022/01/26 05:41:13;;;;;;;30.50;15.45;;;;;;;-4.44;77.70;99342.91;5059551;28;20037;-57
2022/01/26 05:43:39;;;;;;;30.17;15.68;;;;;;;-4.43;77.23;99347.16;5057246;28;20036;-57
2022/01/26 05:46:13;;;;;;;28.02;15.27;;;;;;;-4.46;77.13;99344.53;5044371;28;20033;-57
2022/01/26 05:48:44;;;;;;;33.33;15.48;;;;;;;-4.56;78.94;99339.97;5053058;28;20060;-57
2022/01/26 05:51:11;;;;;;;26.52;13.85;;;;;;;-4.40;77.87;99346.41;5050843;28;20021;-57
2022/01/26 05:53:38;;;;;;;26.75;14.85;;;;;;;-4.38;77.34;99344.78;5044898;28;20053;-56
2022/01/26 05:56:04;;;;;;;30.10;15.70;;;;;;;-4.41;77.75;99340.47;5048021;28;20314;-56
2022/01/26 05:58:30;;;;;;;32.47;16.35;;;;;;;-4.39;79.02;99349.00;5057278;28;20059;-57
2022/01/26 06:00:59;;;;;;;27.60;14.35;;;;;;;-4.36;78.48;99349.09;5055445;28;20200;-56
2022/01/26 06:03:25;;;;;;;32.88;15.77;;;;;;;-4.32;79.13;99347.50;5041831;28;20327;-57
2022/01/26 06:05:53;;;;;;;29.77;15.80;;;;;;;-4.30;78.06;99348.41;5029816;28;20341;-57
2022/01/26 06:08:19;;;;;;;30.00;15.90;;;;;;;-4.31;78.69;99348.38;5046999;28;20033;-56
2022/01/26 06:10:44;;;;;;;27.05;15.77;;;;;;;-4.47;78.95;99360.50;5045559;28;20041;-57
2022/01/26 06:13:10;;;;;;;36.60;20.45;;;;;;;-4.46;78.60;99359.69;5047098;28;20132;-58
2022/01/26 06:15:35;;;;;;;28.77;15.10;;;;;;;-4.49;78.53;99351.16;5045175;28;20045;-58
2022/01/26 06:18:01;;;;;;;32.40;16.33;;;;;;;-4.47;80.67;99360.50;5046291;28;20036;-56
2022/01/26 06:20:27;;;;;;;29.90;15.30;;;;;;;-4.43;78.19;99362.31;5047530;28;20223;-57
2022/01/26 06:22:52;;;;;;;32.63;16.80;;;;;;;-4.42;79.03;99366.53;5046226;28;20029;-57
2022/01/26 06:25:18;;;;;;;34.88;16.30;;;;;;;-4.28;78.47;99356.06;5047088;28;20036;-57
2022/01/26 06:27:44;;;;;;;30.05;16.20;;;;;;;-4.28;80.27;99361.09;5045074;28;20021;-60
2022/01/26 06:30:11;;;;;;;29.00;14.60;;;;;;;-4.26;79.63;99362.88;5045413;28;20075;-57
2022/01/26 06:32:38;;;;;;;29.80;15.90;;;;;;;-4.32;79.34;99344.97;5046525;28;20250;-58
2022/01/26 06:35:07;;;;;;;30.90;16.00;;;;;;;-4.23;79.26;99372.22;5046304;28;20202;-56
2022/01/26 06:37:33;;;;;;;26.25;14.93;;;;;;;-4.17;80.02;99355.59;5059883;28;20040;-57
2022/01/26 06:39:58;;;;;;;29.38;15.65;;;;;;;-4.12;79.20;99358.25;5059636;28;20033;-57
2022/01/26 06:42:29;;;;;;;30.25;15.32;;;;;;;-4.15;79.66;99360.69;5049844;28;20041;-57
2022/01/26 06:45:12;;;;;;;28.83;15.27;;;;;;;-4.05;79.74;99361.84;5050814;28;20037;-56
2022/01/26 06:50:23;;;;;;;30.75;16.45;;;;;;;-4.22;79.04;99349.53;5052234;28;20345;-57
2022/01/26 06:52:49;;;;;;;29.95;15.57;;;;;;;-4.15;79.27;99363.22;5053488;28;20029;-57
2022/01/26 06:55:16;;;;;;;29.70;15.90;;;;;;;-4.07;79.81;99371.06;5045879;28;20257;-58
2022/01/26 06:57:42;;;;;;;29.65;16.25;;;;;;;-4.07;80.49;99376.97;5047344;28;20029;-57
2022/01/26 07:00:09;;;;;;;28.67;15.55;;;;;;;-4.15;80.17;99360.69;5056360;28;20036;-57
2022/01/26 07:02:37;;;;;;;28.00;14.63;;;;;;;-4.00;79.98;99376.34;5027313;28;20045;-58
2022/01/26 07:05:04;;;;;;;27.65;15.18;;;;;;;-3.92;79.10;99373.19;5053216;28;20064;-57
2022/01/26 07:07:29;;;;;;;25.67;15.20;;;;;;;-3.92;78.85;99380.78;5056586;28;20045;-57
2022/01/26 07:09:55;;;;;;;26.95;14.93;;;;;;;-4.01;80.57;99371.25;5051455;28;20241;-57
2022/01/26 07:12:21;;;;;;;28.27;15.43;;;;;;;-4.00;80.51;99375.50;5045496;28;20084;-57
2022/01/26 07:22:43;;;;;;;26.48;15.15;;;;;;;-3.91;80.66;99380.00;5052535;28;20033;-57
2022/01/26 07:25:08;;;;;;;26.45;13.35;;;;;;;-3.90;79.94;99380.03;5059250;28;20036;-56
2022/01/26 07:27:34;;;;;;;27.98;14.65;;;;;;;-3.84;80.25;99376.84;5059303;28;20029;-57
2022/01/26 07:30:00;;;;;;;23.73;13.50;;;;;;;-3.78;80.11;99368.59;5058160;28;20021;-58
2022/01/26 07:32:28;;;;;;;28.90;14.82;;;;;;;-3.77;80.00;99372.84;5044710;28;20049;-59
2022/01/26 07:34:54;;;;;;;26.20;13.70;;;;;;;-3.81;80.74;99370.19;5044653;28;20033;-57
2022/01/26 07:37:21;;;;;;;23.42;12.70;;;;;;;-3.83;80.75;99379.41;5061356;28;20348;-57
2022/01/26 07:40:02;;;;;;;25.73;13.52;;;;;;;-3.77;82.05;99376.22;5043175;28;20092;-58
2022/01/26 07:42:28;;;;;;;27.42;14.05;;;;;;;-3.70;81.38;99378.13;5045466;28;20049;-56
2022/01/26 07:44:54;;;;;;;24.17;12.90;;;;;;;-3.70;81.04;99377.28;5056933;28;20040;-58
2022/01/26 07:47:19;;;;;;;24.55;13.50;;;;;;;-3.55;81.85;99385.34;5048267;28;20219;-57
2022/01/26 07:49:45;;;;;;;26.77;14.43;;;;;;;-3.51;80.85;99378.69;5052575;28;20214;-57
2022/01/26 07:52:13;;;;;;;24.33;13.43;;;;;;;-3.45;81.12;99380.53;5056925;28;20025;-58
2022/01/26 07:54:39;;;;;;;29.35;14.35;;;;;;;-3.51;81.07;99378.69;5044207;28;20045;-58
2022/01/26 07:57:07;;;;;;;26.92;14.23;;;;;;;-3.44;81.72;99379.72;5053730;28;20029;-58
2022/01/26 07:59:33;;;;;;;28.27;14.00;;;;;;;-3.34;81.22;99390.16;5059304;28;20104;-57
2022/01/26 08:01:58;;;;;;;29.23;14.73;;;;;;;-3.31;81.56;99395.34;5058737;28;20030;-57
2022/01/26 08:04:24;;;;;;;28.30;13.90;;;;;;;-3.18;81.37;99393.13;5061598;28;20333;-58
2022/01/26 08:06:50;;;;;;;29.23;14.88;;;;;;;-3.18;80.79;99391.50;5044879;28;20033;-57
2022/01/26 08:09:16;;;;;;;31.70;15.30;;;;;;;-3.22;81.18;99388.78;5046829;28;20097;-56
2022/01/26 08:11:42;;;;;;;27.77;14.75;;;;;;;-3.38;80.81;99378.22;5042929;28;20033;-56
2022/01/26 08:14:09;;;;;;;28.75;14.30;;;;;;;-3.19;81.20;99391.41;5043325;28;20041;-58
2022/01/26 08:16:35;;;;;;;29.45;14.45;;;;;;;-3.13;80.15;99389.94;5043308;28;20025;-57
2022/01/26 08:19:00;;;;;;;30.85;15.82;;;;;;;-3.07;80.35;99386.72;5041842;28;20029;-57
2022/01/26 08:21:26;;;;;;;28.58;14.23;;;;;;;-3.21;80.14;99393.06;5043582;28;20250;-58
2022/01/26 08:23:52;;;;;;;27.17;14.50;;;;;;;-3.34;79.63;99391.84;5043217;28;20041;-59
2022/01/26 08:26:25;;;;;;;30.38;14.63;;;;;;;-3.13;80.40;99397.53;5060066;28;20048;-57
2022/01/26 08:28:55;;;;;;;29.35;14.07;;;;;;;-3.36;80.86;99394.31;5059829;28;20039;-57
2022/01/26 08:31:20;;;;;;;31.38;14.75;;;;;;;-3.24;81.10;99395.50;5045638;28;20084;-57
2022/01/26 08:33:46;;;;;;;30.08;13.68;;;;;;;-3.34;81.01;99395.22;5048042;28;20345;-57
2022/01/26 08:36:12;;;;;;;46.53;16.35;;;;;;;-3.24;81.26;99393.81;5044481;28;20036;-56
2022/01/26 08:38:37;;;;;;;30.35;15.88;;;;;;;-3.25;80.71;99402.25;5043761;28;20043;-57
2022/01/26 08:41:03;;;;;;;31.92;15.25;;;;;;;-3.13;81.07;99409.34;5043865;28;20021;-57
2022/01/26 08:43:29;;;;;;;32.38;15.30;;;;;;;-3.13;80.65;99389.94;5044187;28;20041;-57
2022/01/26 08:45:54;;;;;;;33.85;16.00;;;;;;;-3.15;80.42;99406.75;5047099;28;20052;-57
2022/01/26 08:48:22;;;;;;;34.25;15.18;;;;;;;-3.07;80.56;99404.44;5049579;28;20033;-57
2022/01/26 08:50:47;;;;;;;31.38;14.82;;;;;;;-3.23;81.53;99405.69;5044313;28;20029;-57
2022/01/26 08:53:13;;;;;;;28.67;14.38;;;;;;;-3.29;81.30;99410.56;5048772;28;20092;-57
2022/01/26 08:55:39;;;;;;;30.08;14.55;;;;;;;-3.41;81.02;99411.03;5043801;28;20025;-57
2022/01/26 08:58:05;;;;;;;30.58;15.13;;;;;;;-3.23;81.31;99417.50;5043173;28;20348;-57
2022/01/26 09:00:32;;;;;;;24.60;12.90;;;;;;;-3.48;81.41;99412.56;5043565;28;20037;-57
2022/01/26 09:02:59;;;;;;;36.33;18.52;;;;;;;-3.17;81.76;99418.50;5034103;28;20026;-56
2022/01/26 09:05:24;;;;;;;31.75;15.32;;;;;;;-3.24;81.27;99424.22;5043606;28;20041;-59
2022/01/26 09:07:55;;;;;;;25.25;13.63;;;;;;;-3.23;81.05;99433.53;5049739;28;20218;-57
2022/01/26 09:10:21;;;;;;;29.17;14.25;;;;;;;-3.30;81.10;99431.63;5058547;28;20108;-58
2022/01/26 09:12:48;;;;;;;29.08;13.85;;;;;;;-3.24;81.05;99434.34;5058463;28;20091;-58
2022/01/26 09:15:14;;;;;;;27.55;13.98;;;;;;;-3.08;81.55;99433.09;5054091;28;20031;-57
2022/01/26 09:17:42;;;;;;;25.00;13.38;;;;;;;-3.18;79.93;99433.66;5043326;28;20096;-57
2022/01/26 09:20:08;;;;;;;27.98;13.35;;;;;;;-3.19;79.85;99416.75;5045455;28;20443;-58
2022/01/26 09:22:34;;;;;;;25.15;13.32;;;;;;;-3.21;80.72;99433.56;5044526;28;20067;-57
2022/01/26 09:25:00;;;;;;;25.35;13.70;;;;;;;-3.02;80.78;99434.97;5044392;28;20029;-57
2022/01/26 09:27:26;;;;;;;25.45;12.50;;;;;;;-2.99;80.45;99427.47;5042940;28;20029;-58
2022/01/26 09:29:52;;;;;;;23.52;13.15;;;;;;;-2.93;80.97;99422.56;5043710;28;20196;-57
2022/01/26 09:32:18;;;;;;;25.45;12.75;;;;;;;-2.87;79.84;99425.28;5042412;28;20241;-57
2022/01/26 09:34:44;;;;;;;23.63;11.75;;;;;;;-3.08;80.32;99429.72;5043167;28;20031;-57
2022/01/26 09:37:14;;;;;;;24.60;12.15;;;;;;;-3.03;79.78;99451.84;5042859;28;20025;-57
2022/01/26 09:39:41;;;;;;;21.33;11.50;;;;;;;-2.84;79.94;99432.09;5042697;28;20254;-56
2022/01/26 09:42:08;;;;;;;23.52;12.13;;;;;;;-2.83;79.76;99424.53;5043367;28;20330;-58
2022/01/26 09:44:34;;;;;;;23.13;12.05;;;;;;;-2.89;79.56;99418.44;5042193;28;20329;-58
2022/01/26 09:47:00;;;;;;;22.92;11.95;;;;;;;-2.88;80.00;99438.78;5041672;28;20030;-58
2022/01/26 09:49:32;;;;;;;22.65;11.23;;;;;;;-2.95;80.26;99436.84;5043335;28;20025;-56
2022/01/26 09:51:59;;;;;;;;;;;;;;;-2.89;80.22;99441.25;5043598;28;20045;-57
2022/01/26 09:54:30;;;;;;;21.55;10.82;;;;;;;-2.86;79.64;99441.34;5043955;28;19913;-57
2022/01/26 09:57:01;;;;;;;21.17;10.70;;;;;;;-2.90;79.82;99448.00;5039453;28;20064;-57
2022/01/26 09:59:27;;;;;;;20.50;11.05;;;;;;;-2.89;79.68;99438.69;5043327;28;20033;-57
2022/01/26 10:01:52;;;;;;;18.00;10.05;;;;;;;-2.76;79.68;99438.25;5043289;28;20029;-57
2022/01/26 10:04:35;;;;;;;18.13;10.55;;;;;;;-3.16;79.12;99376.34;5042893;28;20033;-57
2022/01/26 10:07:13;;;;;;;19.48;10.18;;;;;;;-2.78;79.44;99450.00;5041482;28;20256;-57
2022/01/26 10:09:58;;;;;;;17.70;9.05;;;;;;;-2.92;79.69;99444.56;5040098;28;20419;-58
2022/01/26 10:18:16;;;;;;;18.67;8.88;;;;;;;-2.57;79.38;99446.38;5043807;28;20036;-57
2022/01/26 10:20:50;;;;;;;14.80;7.95;;;;;;;-3.09;79.44;99374.81;5042135;28;20029;-57
2022/01/26 10:23:18;;;;;;;13.73;8.00;;;;;;;-2.58;79.26;99442.09;5040522;28;20192;-57
2022/01/26 10:26:05;;;;;;;14.85;7.85;;;;;;;-2.37;79.34;99439.28;5041837;28;20037;-56
2022/01/26 10:28:40;;;;;;;13.27;7.43;;;;;;;-2.38;79.13;99437.56;5042624;28;20033;-57
2022/01/26 10:31:23;;;;;;;11.88;7.20;;;;;;;-2.48;79.14;99462.69;5041122;28;20037;-57
2022/01/26 10:34:06;;;;;;;11.27;7.03;;;;;;;-2.37;79.50;99459.59;5041348;28;20021;-57
2022/01/26 10:36:42;;;;;;;12.23;7.28;;;;;;;-2.46;79.39;99437.38;5044480;28;20021;-57
2022/01/26 10:39:11;;;;;;;10.73;6.82;;;;;;;-2.51;78.83;99437.25;5041898;28;20148;-56
2022/01/26 10:41:39;;;;;;;11.20;6.43;;;;;;;-2.42;79.34;99436.66;5040137;28;20207;-56
2022/01/26 10:44:06;;;;;;;9.25;6.38;;;;;;;-2.77;78.88;99374.03;5042246;28;20318;-56
2022/01/26 10:46:42;;;;;;;10.35;6.55;;;;;;;-2.34;78.49;99435.16;5041401;28;20096;-57
2022/01/26 10:51:52;;;;;;;11.98;6.93;;;;;;;-2.52;78.82;99430.47;5044723;28;20026;-58
2022/01/26 10:54:38;;;;;;;11.38;6.53;;;;;;;-2.26;79.05;99435.38;5061909;28;20028;-58
2022/01/26 10:57:09;;;;;;;10.07;6.35;;;;;;;-2.21;78.38;99459.16;5050198;28;20310;-58
2022/01/26 10:59:37;;;;;;;21.08;10.48;;;;;;;-2.61;78.93;99426.00;5046726;28;20314;-57
2022/01/26 11:02:10;;;;;;;14.93;7.22;;;;;;;-2.30;79.01;99441.16;5058904;28;20032;-58
2022/01/26 11:04:39;;;;;;;10.77;6.05;;;;;;;-2.64;79.06;99382.84;5049523;28;20021;-57
2022/01/26 11:07:08;;;;;;;11.30;6.88;;;;;;;-2.37;78.94;99452.81;5045183;28;20042;-57
2022/01/26 11:09:36;;;;;;;9.70;6.35;;;;;;;-2.29;79.42;99446.28;5045903;28;20041;-58
2022/01/26 11:12:07;;;;;;;11.52;6.53;;;;;;;-2.30;78.74;99442.03;5042471;28;20036;-58
2022/01/26 11:14:45;;;;;;;9.68;6.35;;;;;;;-2.47;78.17;99439.03;5047411;28;20070;-57
2022/01/26 11:17:26;;;;;;;9.00;5.85;;;;;;;-2.38;78.27;99425.78;5045632;28;20036;-57
2022/01/26 11:19:52;;;;;;;;;;;;;;;-2.21;78.28;99445.63;5045611;28;20215;-57
2022/01/26 11:22:25;;;;;;;9.95;5.45;;;;;;;-2.23;77.94;99434.59;5046325;28;19908;-57
2022/01/26 11:24:51;;;;;;;11.98;6.30;;;;;;;-2.20;78.10;99440.59;5045421;28;20104;-58
2022/01/26 11:27:18;;;;;;;9.95;6.07;;;;;;;-2.15;78.30;99443.22;5044827;28;20096;-58
2022/01/26 11:29:48;;;;;;;8.90;5.68;;;;;;;-2.14;77.45;99442.41;5044048;28;20068;-57
2022/01/26 11:32:21;;;;;;;11.10;6.00;;;;;;;-2.41;78.01;99389.31;5061805;28;20225;-58
2022/01/26 11:34:53;;;;;;;10.60;6.00;;;;;;;-2.23;78.58;99404.16;5060699;28;20100;-57
2022/01/26 11:37:25;;;;;;;;;;;;;;;-2.19;77.26;99446.53;5060450;28;20041;-57
2022/01/26 11:45:30;;;;;;;7.55;5.50;;;;;;;-2.12;78.22;99435.72;5047219;28;20318;-57
2022/01/26 11:48:09;;;;;;;9.35;6.07;;;;;;;-2.00;78.16;99437.72;5057586;28;20041;-57
2022/01/26 11:50:42;;;;;;;9.32;5.85;;;;;;;-1.89;77.98;99450.69;5058556;28;20100;-57
2022/01/26 11:53:14;;;;;;;9.27;6.28;;;;;;;-2.27;77.29;99382.91;5059735;28;20314;-57
2022/01/26 11:55:48;;;;;;;;;;;;;;;-1.96;77.48;99454.72;5051276;28;20025;-57
2022/01/26 11:58:16;;;;;;;11.23;6.57;;;;;;;-1.86;77.52;99455.81;5047374;28;19934;-57
2022/01/26 12:01:28;;;;;;;10.05;6.10;;;;;;;-1.83;78.10;99473.66;5053481;28;20071;-57
2022/01/26 12:03:47;;;;;;;8.88;5.93;;;;;;;-1.79;77.53;99472.91;5042562;28;20053;-58
2022/01/26 12:06:18;;;;;;;;;;;;;;;-1.71;77.00;99455.31;5046765;28;20033;-56
2022/01/26 12:08:45;;;;;;;12.98;5.90;;;;;;;-2.04;76.74;99441.81;5045936;28;19958;-57
2022/01/26 12:11:12;;;;;;;10.68;6.20;;;;;;;-1.96;77.11;99440.34;5045589;28;20045;-57
2022/01/26 12:13:39;;;;;;;9.15;5.78;;;;;;;-1.97;77.18;99453.00;5041016;28;20234;-58
2022/01/26 12:16:16;;;;;;;10.88;6.18;;;;;;;-1.88;77.32;99470.13;5043681;28;20036;-57
2022/01/26 12:18:53;;;;;;;9.70;5.70;;;;;;;-1.82;76.95;99450.84;5041472;28;20092;-57
2022/01/26 12:43:49;;;;;;;10.02;6.47;;;;;;;-1.91;77.51;99456.56;5048094;28;20051;-58
2022/01/26 12:46:18;;;;;;;10.85;6.68;;;;;;;-1.85;78.36;99460.94;5053431;28;20029;-57
2022/01/26 12:48:52;;;;;;;9.43;6.00;;;;;;;-2.28;77.66;99397.28;5027330;28;20097;-57
2022/01/26 12:51:19;;;;;;;11.50;5.85;;;;;;;-1.86;78.43;99459.22;5058705;28;20036;-57
2022/01/26 12:53:54;;;;;;;11.13;7.55;;;;;;;-1.80;77.67;99461.88;5044259;28;20029;-57
2022/01/26 12:56:20;;;;;;;12.98;7.38;;;;;;;-1.84;78.18;99474.47;5041187;28;20063;-57
2022/01/26 12:58:45;;;;;;;15.98;9.35;;;;;;;-1.80;77.34;99468.66;5045406;28;20108;-57
2022/01/26 13:01:19;;;;;;;16.20;9.35;;;;;;;-1.92;78.70;99472.59;5058673;28;20364;-57
2022/01/26 13:03:47;;;;;;;13.65;7.70;;;;;;;-2.44;78.88;99400.22;5058214;28;20103;-57
2022/01/26 13:06:21;;;;;;;15.20;7.90;;;;;;;-1.95;78.86;99490.28;5045089;28;20112;-58
2022/01/26 13:08:48;;;;;;;24.52;13.00;;;;;;;-1.98;78.46;99480.06;5052980;28;20036;-57
2022/01/26 13:11:35;;;;;;;15.75;8.65;;;;;;;-2.34;78.97;99416.56;5042618;28;20029;-58
2022/01/26 13:14:18;;;;;;;15.27;7.85;;;;;;;-1.88;79.01;99475.22;5052787;28;20029;-57
2022/01/26 13:17:14;;;;;;;18.50;9.35;;;;;;;-1.98;79.49;99482.59;5056263;28;20040;-58
2022/01/26 13:23:02;;;;;;;12.93;6.57;;;;;;;-2.11;79.71;99480.53;5022564;28;20133;-57
2022/01/26 13:39:25;;;;;;;9.43;5.53;;;;;;;-2.00;80.06;99484.22;5023251;28;20370;-57
2022/01/26 13:52:44;;;;;;;8.43;5.55;;;;;;;-1.90;79.93;99500.56;5029630;28;20033;-57
2022/01/26 14:00:18;;;;;;;11.25;5.20;;;;;;;-2.00;80.11;99496.91;5056445;28;20029;-57
2022/01/26 14:02:44;;;;;;;7.55;4.55;;;;;;;-1.92;79.26;99497.97;5057467;28;20092;-57
2022/01/26 14:05:12;;;;;;;7.95;4.07;;;;;;;-1.82;80.22;99499.06;5049116;28;20053;-57
2022/01/26 14:07:39;;;;;;;8.65;4.50;;;;;;;-2.19;79.78;99436.41;5043232;28;20060;-58
2022/01/26 14:10:05;;;;;;;5.18;3.72;;;;;;;-1.86;79.11;99498.97;5047685;28;20051;-58
2022/01/26 14:12:36;;;;;;;12.15;5.03;;;;;;;-1.81;79.19;99507.53;5053590;28;20025;-57
2022/01/26 14:15:06;;;;;;;8.10;4.13;;;;;;;-1.77;79.77;99516.94;5056346;28;20314;-57
2022/01/26 14:25:25;;;;;;;9.73;5.20;;;;;;;-1.77;80.28;99525.44;5060055;28;20098;-57